createdAt,value
2022-10-29T00:00:23.155Z,16.42
2022-10-29T00:01:23.218Z,16.36
2022-10-29T00:02:23.194Z,16.33
2022-10-29T00:03:23.216Z,16.38
2022-10-29T00:04:23.140Z,16.38
2022-10-29T00:05:23.135Z,16.31
2022-10-29T00:06:23.124Z,16.35
2022-10-29T00:07:23.119Z,16.35
2022-10-29T00:08:23.111Z,16.32
2022-10-29T00:09:23.119Z,16.35
2022-10-29T00:10:23.105Z,16.33
2022-10-29T00:11:23.110Z,16.35
2022-10-29T00:12:23.097Z,16.31
2022-10-29T00:13:23.097Z,16.24
2022-10-29T00:14:23.096Z,16.24
2022-10-29T00:15:23.088Z,16.23
2022-10-29T00:16:23.078Z,16.23
2022-10-29T00:17:23.077Z,16.29
2022-10-29T00:18:23.080Z,16.28
2022-10-29T00:19:23.069Z,16.26
2022-10-29T00:20:23.065Z,16.32
2022-10-29T00:21:23.064Z,16.29
2022-10-29T00:22:23.055Z,16.32
2022-10-29T00:23:23.059Z,16.26
2022-10-29T00:24:23.044Z,16.23
2022-10-29T00:25:23.044Z,16.20
2022-10-29T00:26:23.039Z,16.26
2022-10-29T00:27:23.036Z,16.23
2022-10-29T00:28:23.031Z,16.20
2022-10-29T00:29:23.028Z,16.20
2022-10-29T00:30:23.021Z,16.09
2022-10-29T00:31:23.080Z,16.15
2022-10-29T00:32:23.024Z,16.15
2022-10-29T00:33:23.007Z,16.16
2022-10-29T00:34:23.006Z,16.15
2022-10-29T00:35:23.001Z,16.15
2022-10-29T00:36:22.998Z,16.04
2022-10-29T00:37:22.990Z,16.13
2022-10-29T00:38:22.988Z,16.12
2022-10-29T00:39:22.984Z,16.10
2022-10-29T00:40:22.977Z,16.13
2022-10-29T00:41:22.979Z,16.08
2022-10-29T00:42:22.964Z,16.08
2022-10-29T00:43:22.964Z,16.02
2022-10-29T00:44:22.960Z,16.08
2022-10-29T00:45:22.961Z,16.04
2022-10-29T00:46:23.045Z,16.04
2022-10-29T00:47:22.948Z,16.08
2022-10-29T00:48:22.944Z,16.16
2022-10-29T00:49:22.939Z,16.09
2022-10-29T00:50:22.941Z,16.08
2022-10-29T00:51:22.926Z,16.12
2022-10-29T00:52:22.924Z,16.15
2022-10-29T00:53:22.923Z,16.13
2022-10-29T00:54:22.921Z,16.09
2022-10-29T00:55:22.913Z,16.00
2022-10-29T00:56:22.923Z,16.09
2022-10-29T00:57:22.903Z,16.10
2022-10-29T00:58:22.896Z,16.08
2022-10-29T00:59:22.899Z,16.17
2022-10-29T01:00:22.885Z,16.16
2022-10-29T01:01:22.936Z,16.12
2022-10-29T01:02:23.001Z,16.10
2022-10-29T01:03:22.882Z,16.15
2022-10-29T01:04:22.874Z,16.13
2022-10-29T01:05:22.873Z,16.17
2022-10-29T01:06:22.862Z,16.12
2022-10-29T01:07:22.862Z,16.15
2022-10-29T01:08:22.861Z,16.12
2022-10-29T01:09:22.850Z,16.12
2022-10-29T01:10:22.848Z,16.08
2022-10-29T01:11:22.838Z,16.08
2022-10-29T01:12:22.843Z,16.16
2022-10-29T01:13:22.834Z,16.09
2022-10-29T01:14:22.829Z,16.01
2022-10-29T01:15:22.826Z,16.08
2022-10-29T01:16:22.819Z,16.02
2022-10-29T01:17:22.826Z,16.01
2022-10-29T01:18:22.805Z,16.02
2022-10-29T01:19:22.890Z,16.01
2022-10-29T01:20:22.797Z,15.83
2022-10-29T01:21:22.812Z,15.90
2022-10-29T01:22:22.791Z,15.94
2022-10-29T01:23:22.794Z,15.92
2022-10-29T01:24:22.782Z,15.84
2022-10-29T01:25:22.778Z,15.94
2022-10-29T01:26:22.768Z,15.86
2022-10-29T01:27:22.789Z,15.80
2022-10-29T01:28:22.790Z,15.80
2022-10-29T01:29:22.768Z,15.77
2022-10-29T01:30:22.777Z,15.83
2022-10-29T01:31:22.758Z,15.83
2022-10-29T01:32:22.752Z,15.77
2022-10-29T01:33:22.743Z,15.75
2022-10-29T01:34:22.740Z,15.76
2022-10-29T01:35:22.730Z,15.64
2022-10-29T01:36:22.730Z,15.70
2022-10-29T01:37:22.724Z,15.72
2022-10-29T01:38:22.718Z,15.64
2022-10-29T01:39:22.726Z,15.61
2022-10-29T01:40:22.710Z,15.67
2022-10-29T01:41:22.712Z,15.67
2022-10-29T01:42:22.699Z,15.54
2022-10-29T01:43:22.699Z,15.54
2022-10-29T01:44:22.691Z,15.43
2022-10-29T01:45:22.687Z,15.47
2022-10-29T01:46:22.683Z,15.54
2022-10-29T01:47:22.676Z,15.46
2022-10-29T01:48:22.675Z,15.43
2022-10-29T01:49:22.672Z,15.43
2022-10-29T01:50:22.663Z,15.40
2022-10-29T01:51:22.659Z,15.33
2022-10-29T01:52:22.658Z,15.43
2022-10-29T01:53:22.656Z,15.44
2022-10-29T01:54:22.645Z,15.42
2022-10-29T01:55:22.642Z,15.27
2022-10-29T01:56:22.639Z,15.27
2022-10-29T01:57:22.632Z,15.33
2022-10-29T01:58:22.634Z,15.28
2022-10-29T01:59:35.462Z,15.25
2022-10-29T02:00:22.618Z,15.22
2022-10-29T02:01:22.801Z,15.22
2022-10-29T02:02:22.604Z,15.19
2022-10-29T02:03:22.604Z,15.10
2022-10-29T02:04:22.595Z,15.14
2022-10-29T02:05:22.601Z,15.07
2022-10-29T02:06:22.589Z,15.09
2022-10-29T02:07:22.589Z,15.06
2022-10-29T02:08:22.580Z,15.06
2022-10-29T02:09:22.577Z,15.06
2022-10-29T02:10:22.569Z,15.02
2022-10-29T02:11:22.564Z,15.03
2022-10-29T02:12:22.562Z,14.99
2022-10-29T02:14:22.559Z,15.10
2022-10-29T02:15:22.590Z,15.06
2022-10-29T02:16:22.547Z,15.00
2022-10-29T02:17:22.536Z,14.99
2022-10-29T02:18:22.531Z,15.02
2022-10-29T02:19:22.527Z,15.00
2022-10-29T02:20:22.524Z,14.89
2022-10-29T02:21:22.526Z,14.88
2022-10-29T02:22:22.514Z,14.89
2022-10-29T02:23:22.514Z,14.89
2022-10-29T02:24:22.509Z,14.84
2022-10-29T02:25:22.546Z,14.86
2022-10-29T02:26:22.498Z,14.81
2022-10-29T02:27:22.496Z,14.81
2022-10-29T02:28:22.489Z,14.77
2022-10-29T02:29:22.481Z,14.82
2022-10-29T02:30:22.475Z,14.72
2022-10-29T02:31:22.486Z,14.82
2022-10-29T02:32:22.465Z,14.79
2022-10-29T02:33:22.461Z,14.79
2022-10-29T02:34:22.453Z,14.79
2022-10-29T02:35:22.451Z,14.78
2022-10-29T02:36:22.452Z,14.78
2022-10-29T02:37:22.455Z,14.73
2022-10-29T02:38:22.432Z,14.69
2022-10-29T02:39:22.428Z,14.68
2022-10-29T02:40:22.434Z,14.70
2022-10-29T02:41:22.420Z,14.70
2022-10-29T02:42:22.415Z,14.68
2022-10-29T02:43:22.421Z,14.68
2022-10-29T02:44:22.409Z,14.73
2022-10-29T02:45:22.395Z,14.73
2022-10-29T02:46:22.396Z,14.69
2022-10-29T02:47:22.393Z,14.69
2022-10-29T02:48:22.393Z,14.68
2022-10-29T02:49:22.381Z,14.77
2022-10-29T02:50:22.379Z,14.66
2022-10-29T02:51:22.369Z,14.68
2022-10-29T02:52:22.366Z,14.78
2022-10-29T02:53:22.370Z,14.66
2022-10-29T02:54:22.353Z,14.70
2022-10-29T02:55:22.349Z,14.77
2022-10-29T02:56:22.343Z,14.72
2022-10-29T02:57:22.340Z,14.68
2022-10-29T02:59:22.379Z,14.69
2022-10-29T03:00:22.327Z,14.78
2022-10-29T03:01:29.567Z,14.69
2022-10-29T03:03:15.940Z,14.68
2022-10-29T03:04:15.925Z,14.68
2022-10-29T03:05:15.915Z,14.68
2022-10-29T03:06:15.908Z,14.60
2022-10-29T03:07:15.910Z,14.68
2022-10-29T03:08:15.899Z,14.62
2022-10-29T03:09:15.895Z,14.63
2022-10-29T03:10:15.893Z,14.65
2022-10-29T03:11:15.891Z,14.54
2022-10-29T03:12:15.880Z,14.63
2022-10-29T03:13:15.872Z,14.59
2022-10-29T03:14:15.870Z,14.60
2022-10-29T03:15:15.864Z,14.59
2022-10-29T03:16:15.865Z,14.63
2022-10-29T03:17:15.853Z,14.60
2022-10-29T03:18:15.850Z,14.59
2022-10-29T03:19:15.848Z,14.55
2022-10-29T03:20:15.855Z,14.58
2022-10-29T03:21:15.833Z,14.62
2022-10-29T03:22:15.828Z,14.58
2022-10-29T03:23:15.823Z,14.58
2022-10-29T03:24:15.828Z,14.60
2022-10-29T03:25:15.815Z,14.62
2022-10-29T03:26:15.808Z,14.59
2022-10-29T03:27:15.800Z,14.58
2022-10-29T03:28:15.911Z,14.53
2022-10-29T03:29:15.790Z,14.58
2022-10-29T03:30:15.791Z,14.53
2022-10-29T03:31:15.788Z,14.54
2022-10-29T03:32:15.784Z,14.51
2022-10-29T03:33:15.774Z,14.53
2022-10-29T03:34:15.771Z,14.51
2022-10-29T03:35:15.771Z,14.50
2022-10-29T03:36:15.824Z,14.53
2022-10-29T03:37:15.753Z,14.53
2022-10-29T03:38:15.749Z,14.53
2022-10-29T03:39:15.743Z,14.50
2022-10-29T03:40:15.738Z,14.54
2022-10-29T03:41:15.732Z,14.45
2022-10-29T03:42:15.728Z,14.41
2022-10-29T03:43:15.726Z,14.50
2022-10-29T03:44:15.718Z,14.53
2022-10-29T03:45:15.717Z,14.47
2022-10-29T03:46:15.705Z,14.54
2022-10-29T03:47:15.708Z,14.63
2022-10-29T03:48:15.694Z,14.54
2022-10-29T03:49:15.692Z,14.48
2022-10-29T03:50:15.688Z,14.53
2022-10-29T03:51:15.685Z,14.50
2022-10-29T03:52:15.679Z,14.53
2022-10-29T03:53:15.670Z,14.48
2022-10-29T03:54:15.712Z,14.44
2022-10-29T03:55:15.663Z,14.44
2022-10-29T03:56:15.656Z,14.43
2022-10-29T03:57:15.651Z,14.45
2022-10-29T03:58:15.648Z,14.51
2022-10-29T03:59:15.649Z,14.44
2022-10-29T04:00:15.643Z,14.48
2022-10-29T04:01:15.675Z,14.45
2022-10-29T04:02:15.765Z,14.43
2022-10-29T04:03:15.617Z,14.37
2022-10-29T04:04:15.677Z,14.37
2022-10-29T04:05:15.616Z,14.43
2022-10-29T04:06:15.611Z,14.41
2022-10-29T04:07:15.601Z,14.37
2022-10-29T04:08:15.604Z,14.33
2022-10-29T04:09:15.588Z,14.35
2022-10-29T04:10:15.586Z,14.33
2022-10-29T04:11:15.579Z,14.35
2022-10-29T04:12:15.574Z,14.35
2022-10-29T04:13:15.567Z,14.36
2022-10-29T04:14:15.567Z,14.29
2022-10-29T04:15:15.559Z,14.33
2022-10-29T04:16:15.555Z,14.37
2022-10-29T04:17:15.552Z,14.36
2022-10-29T04:18:15.543Z,14.32
2022-10-29T04:19:15.551Z,14.36
2022-10-29T04:20:33.488Z,14.35
2022-10-29T04:27:08.053Z,14.25
2022-10-29T04:28:42.697Z,14.28
2022-10-29T04:29:15.487Z,14.18
2022-10-29T04:30:15.572Z,14.15
2022-10-29T04:31:15.477Z,14.17
2022-10-29T04:32:15.474Z,14.20
2022-10-29T04:33:15.470Z,14.20
2022-10-29T04:34:15.460Z,14.18
2022-10-29T04:35:15.456Z,14.17
2022-10-29T04:36:15.447Z,14.10
2022-10-29T04:37:15.447Z,14.14
2022-10-29T04:38:15.440Z,14.15
2022-10-29T04:39:18.310Z,14.12
2022-10-29T04:40:15.427Z,14.10
2022-10-29T04:41:15.423Z,14.12
2022-10-29T04:42:15.444Z,14.00
2022-10-29T04:43:15.412Z,14.05
2022-10-29T04:44:15.416Z,13.92
2022-10-29T04:45:15.400Z,13.97
2022-10-29T04:46:15.398Z,13.90
2022-10-29T04:47:15.397Z,14.07
2022-10-29T04:48:15.392Z,14.05
2022-10-29T04:49:15.458Z,13.93
2022-10-29T04:50:15.376Z,14.08
2022-10-29T04:51:15.373Z,13.97
2022-10-29T04:52:15.368Z,14.03
2022-10-29T04:53:15.361Z,13.95
2022-10-29T04:54:15.357Z,14.00
2022-10-29T04:55:15.355Z,13.97
2022-10-29T04:56:15.350Z,13.99
2022-10-29T04:57:15.342Z,13.93
2022-10-29T04:58:15.338Z,13.89
2022-10-29T04:59:15.331Z,13.93
2022-10-29T05:00:18.001Z,13.89
2022-10-29T05:01:15.483Z,13.92
2022-10-29T05:02:15.311Z,13.85
2022-10-29T05:03:15.321Z,13.92
2022-10-29T05:04:15.303Z,13.92
2022-10-29T05:05:15.299Z,13.83
2022-10-29T05:06:15.292Z,13.87
2022-10-29T05:07:15.286Z,13.81
2022-10-29T05:08:15.286Z,13.85
2022-10-29T05:09:15.282Z,13.90
2022-10-29T05:10:15.267Z,13.90
2022-10-29T05:11:15.263Z,13.83
2022-10-29T05:12:15.264Z,13.79
2022-10-29T05:13:15.260Z,13.83
2022-10-29T05:14:15.249Z,13.89
2022-10-29T05:15:15.244Z,13.87
2022-10-29T05:16:15.249Z,13.79
2022-10-29T05:17:15.239Z,13.85
2022-10-29T05:18:15.224Z,13.81
2022-10-29T05:19:15.227Z,13.78
2022-10-29T05:20:15.214Z,13.81
2022-10-29T05:21:15.216Z,13.75
2022-10-29T05:22:15.205Z,13.70
2022-10-29T05:23:15.203Z,13.68
2022-10-29T05:24:15.192Z,13.67
2022-10-29T05:25:15.193Z,13.71
2022-10-29T05:26:15.180Z,13.59
2022-10-29T05:27:15.178Z,13.63
2022-10-29T05:28:15.175Z,13.67
2022-10-29T05:29:15.176Z,13.60
2022-10-29T05:30:15.163Z,13.67
2022-10-29T05:31:15.159Z,13.68
2022-10-29T05:32:15.152Z,13.70
2022-10-29T05:33:15.144Z,13.65
2022-10-29T05:34:15.141Z,13.68
2022-10-29T05:35:15.134Z,13.70
2022-10-29T05:36:15.130Z,13.77
2022-10-29T05:37:15.125Z,13.75
2022-10-29T05:38:15.119Z,13.78
2022-10-29T05:39:15.114Z,13.68
2022-10-29T05:40:15.111Z,13.79
2022-10-29T05:41:15.103Z,13.83
2022-10-29T05:42:15.103Z,13.75
2022-10-29T05:43:15.087Z,13.75
2022-10-29T05:44:15.082Z,13.79
2022-10-29T05:45:15.081Z,13.92
2022-10-29T05:46:15.085Z,13.87
2022-10-29T05:47:15.072Z,13.87
2022-10-29T05:48:15.068Z,13.83
2022-10-29T05:49:15.056Z,13.86
2022-10-29T05:50:15.055Z,13.85
2022-10-29T05:51:15.050Z,13.90
2022-10-29T05:52:15.041Z,13.89
2022-10-29T05:53:15.039Z,13.81
2022-10-29T05:54:15.031Z,13.89
2022-10-29T05:55:15.024Z,13.87
2022-10-29T05:56:15.020Z,13.83
2022-10-29T05:57:15.012Z,13.81
2022-10-29T05:58:15.009Z,13.81
2022-10-29T05:59:15.003Z,13.86
2022-10-29T06:00:14.996Z,13.85
2022-10-29T06:01:15.044Z,13.85
2022-10-29T06:02:15.054Z,13.86
2022-10-29T06:03:15.075Z,13.74
2022-10-29T06:04:14.975Z,13.79
2022-10-29T06:05:14.967Z,13.81
2022-10-29T06:06:15.000Z,13.81
2022-10-29T06:07:14.970Z,13.85
2022-10-29T06:08:14.953Z,13.81
2022-10-29T06:09:14.950Z,13.87
2022-10-29T06:10:14.943Z,13.92
2022-10-29T06:11:14.936Z,13.85
2022-10-29T06:12:14.931Z,13.83
2022-10-29T06:13:14.925Z,13.86
2022-10-29T06:14:14.920Z,13.81
2022-10-29T06:15:14.957Z,13.79
2022-10-29T06:16:14.911Z,13.85
2022-10-29T06:17:14.901Z,13.86
2022-10-29T06:18:14.899Z,13.86
2022-10-29T06:19:14.902Z,13.86
2022-10-29T06:20:14.888Z,13.89
2022-10-29T06:21:14.885Z,13.83
2022-10-29T06:22:14.876Z,13.93
2022-10-29T06:23:14.868Z,13.93
2022-10-29T06:24:14.864Z,13.86
2022-10-29T06:25:14.860Z,13.92
2022-10-29T06:26:14.852Z,13.99
2022-10-29T06:27:14.857Z,13.96
2022-10-29T06:28:14.842Z,13.93
2022-10-29T06:29:14.835Z,13.92
2022-10-29T06:30:14.834Z,14.03
2022-10-29T06:31:14.831Z,13.99
2022-10-29T06:32:14.818Z,13.99
2022-10-29T06:33:14.818Z,13.99
2022-10-29T06:34:14.995Z,13.99
2022-10-29T06:35:14.830Z,14.07
2022-10-29T06:36:14.807Z,14.04
2022-10-29T06:37:14.790Z,14.00
2022-10-29T06:38:14.788Z,14.07
2022-10-29T06:39:14.790Z,14.08
2022-10-29T06:40:14.777Z,14.00
2022-10-29T06:41:14.767Z,14.11
2022-10-29T06:42:14.766Z,14.12
2022-10-29T06:43:14.756Z,14.20
2022-10-29T06:44:14.755Z,14.05
2022-10-29T06:45:14.746Z,14.12
2022-10-29T06:46:14.744Z,14.22
2022-10-29T06:47:14.734Z,14.26
2022-10-29T06:48:20.665Z,14.25
2022-10-29T06:49:14.729Z,14.35
2022-10-29T06:50:14.723Z,14.40
2022-10-29T06:51:14.794Z,14.35
2022-10-29T06:52:14.746Z,14.44
2022-10-29T06:53:14.705Z,14.44
2022-10-29T06:54:14.704Z,14.41
2022-10-29T06:55:14.694Z,14.44
2022-10-29T06:56:14.688Z,14.59
2022-10-29T06:57:14.691Z,14.50
2022-10-29T06:58:14.680Z,14.55
2022-10-29T06:59:14.673Z,14.47
2022-10-29T07:00:14.666Z,14.55
2022-10-29T07:01:14.697Z,14.59
2022-10-29T07:02:14.654Z,14.59
2022-10-29T07:03:14.656Z,14.66
2022-10-29T07:04:14.651Z,14.70
2022-10-29T07:05:14.645Z,14.68
2022-10-29T07:06:14.640Z,14.79
2022-10-29T07:07:14.686Z,14.72
2022-10-29T07:08:14.632Z,14.84
2022-10-29T07:09:14.621Z,14.92
2022-10-29T07:10:14.619Z,14.84
2022-10-29T07:11:14.612Z,14.86
2022-10-29T07:12:14.606Z,14.84
2022-10-29T07:13:14.601Z,14.86
2022-10-29T07:14:14.595Z,14.89
2022-10-29T07:15:14.593Z,14.96
2022-10-29T07:16:14.586Z,15.02
2022-10-29T07:17:14.579Z,15.07
2022-10-29T07:18:14.574Z,15.10
2022-10-29T07:19:14.571Z,15.14
2022-10-29T07:20:14.573Z,15.14
2022-10-29T07:21:14.560Z,15.11
2022-10-29T07:22:14.559Z,15.15
2022-10-29T07:23:14.555Z,15.15
2022-10-29T07:24:14.547Z,15.15
2022-10-29T07:25:14.540Z,15.28
2022-10-29T07:26:14.538Z,15.19
2022-10-29T07:27:14.574Z,15.24
2022-10-29T07:28:14.526Z,15.27
2022-10-29T07:29:14.520Z,15.28
2022-10-29T07:30:14.516Z,15.37
2022-10-29T07:31:14.514Z,15.43
2022-10-29T07:32:14.509Z,15.33
2022-10-29T07:33:14.501Z,15.46
2022-10-29T07:34:14.496Z,15.42
2022-10-29T07:35:14.493Z,15.54
2022-10-29T07:36:14.488Z,15.61
2022-10-29T07:37:14.481Z,15.62
2022-10-29T07:38:14.479Z,15.65
2022-10-29T07:39:14.473Z,15.61
2022-10-29T07:40:14.493Z,15.68
2022-10-29T07:41:14.477Z,15.79
2022-10-29T07:42:14.460Z,15.76
2022-10-29T07:43:14.475Z,15.98
2022-10-29T07:44:14.468Z,15.90
2022-10-29T07:45:14.454Z,15.98
2022-10-29T07:46:14.454Z,16.01
2022-10-29T07:47:14.434Z,16.09
2022-10-29T07:48:14.452Z,16.04
2022-10-29T07:49:14.425Z,16.08
2022-10-29T07:50:14.420Z,16.10
2022-10-29T07:51:14.423Z,16.21
2022-10-29T07:52:14.417Z,16.12
2022-10-29T07:53:14.420Z,16.21
2022-10-29T07:54:14.945Z,16.16
2022-10-29T07:55:14.399Z,16.20
2022-10-29T07:56:14.392Z,16.28
2022-10-29T07:57:14.388Z,16.24
2022-10-29T07:58:14.385Z,16.31
2022-10-29T07:59:14.384Z,16.33
2022-10-29T08:00:14.381Z,16.38
2022-10-29T08:01:14.517Z,16.41
2022-10-29T08:02:14.412Z,16.41
2022-10-29T08:03:14.361Z,16.50
2022-10-29T08:04:14.366Z,16.39
2022-10-29T08:05:14.361Z,16.53
2022-10-29T08:06:14.353Z,16.47
2022-10-29T08:07:14.348Z,16.58
2022-10-29T08:08:14.338Z,16.51
2022-10-29T08:09:14.337Z,16.50
2022-10-29T08:10:14.340Z,16.51
2022-10-29T08:11:14.328Z,16.56
2022-10-29T08:12:14.326Z,16.58
2022-10-29T08:13:14.321Z,16.64
2022-10-29T08:14:15.775Z,16.64
2022-10-29T08:15:14.313Z,16.68
2022-10-29T08:16:14.308Z,16.74
2022-10-29T08:17:14.301Z,16.68
2022-10-29T08:18:14.300Z,16.75
2022-10-29T08:19:14.295Z,16.76
2022-10-29T08:20:14.289Z,16.79
2022-10-29T08:21:14.287Z,16.84
2022-10-29T08:22:14.284Z,16.84
2022-10-29T08:23:14.280Z,16.91
2022-10-29T08:24:14.280Z,16.83
2022-10-29T08:25:14.273Z,16.90
2022-10-29T08:26:14.266Z,16.91
2022-10-29T08:27:14.260Z,17.02
2022-10-29T08:28:14.259Z,16.96
2022-10-29T08:29:14.251Z,17.01
2022-10-29T08:30:14.253Z,17.04
2022-10-29T08:31:14.254Z,17.14
2022-10-29T08:32:14.263Z,17.11
2022-10-29T08:33:14.238Z,17.05
2022-10-29T08:34:14.234Z,17.12
2022-10-29T08:35:14.231Z,17.20
2022-10-29T08:36:14.227Z,17.15
2022-10-29T08:37:14.229Z,17.23
2022-10-29T08:38:14.219Z,17.27
2022-10-29T08:39:14.332Z,17.24
2022-10-29T08:40:14.211Z,17.26
2022-10-29T08:41:14.205Z,17.29
2022-10-29T08:42:14.204Z,17.31
2022-10-29T08:43:14.212Z,17.31
2022-10-29T08:44:14.197Z,17.39
2022-10-29T08:45:14.193Z,17.44
2022-10-29T08:46:14.186Z,17.31
2022-10-29T08:47:14.187Z,17.31
2022-10-29T08:48:14.180Z,17.30
2022-10-29T08:49:14.175Z,17.39
2022-10-29T08:50:14.179Z,17.46
2022-10-29T08:51:14.168Z,17.44
2022-10-29T08:52:14.200Z,17.51
2022-10-29T08:53:22.903Z,17.49
2022-10-29T08:55:14.186Z,17.59
2022-10-29T08:56:14.150Z,17.65
2022-10-29T08:57:14.148Z,17.63
2022-10-29T08:58:14.279Z,17.63
2022-10-29T08:59:14.138Z,17.59
2022-10-29T09:00:14.143Z,17.68
2022-10-29T09:01:21.440Z,17.65
2022-10-29T09:03:07.239Z,17.64
2022-10-29T09:04:07.225Z,17.68
2022-10-29T09:06:11.211Z,17.76
2022-10-29T09:07:11.206Z,17.82
2022-10-29T09:09:15.219Z,17.86
2022-10-29T09:10:15.206Z,17.87
2022-10-29T09:12:08.118Z,17.97
2022-10-29T09:13:08.121Z,17.92
2022-10-29T09:15:12.120Z,17.87
2022-10-29T09:16:12.103Z,17.92
2022-10-29T09:17:14.671Z,17.89
2022-10-29T09:18:12.095Z,17.90
2022-10-29T09:19:12.092Z,17.89
2022-10-29T09:20:12.089Z,17.85
2022-10-29T09:21:12.087Z,17.89
2022-10-29T09:22:12.084Z,17.89
2022-10-29T09:23:12.083Z,17.83
2022-10-29T09:24:12.075Z,17.83
2022-10-29T09:25:12.106Z,17.83
2022-10-29T09:26:12.073Z,17.85
2022-10-29T09:27:12.064Z,17.85
2022-10-29T09:28:12.064Z,17.86
2022-10-29T09:29:12.058Z,17.87
2022-10-29T09:30:12.051Z,17.86
2022-10-29T09:31:12.049Z,17.86
2022-10-29T09:32:12.166Z,17.87
2022-10-29T09:33:12.043Z,17.70
2022-10-29T09:34:12.066Z,17.79
2022-10-29T09:35:12.037Z,17.76
2022-10-29T09:36:12.029Z,17.74
2022-10-29T09:37:12.027Z,17.76
2022-10-29T09:38:12.055Z,17.74
2022-10-29T09:39:12.018Z,17.71
2022-10-29T09:40:12.012Z,17.83
2022-10-29T09:41:12.010Z,17.82
2022-10-29T09:42:12.010Z,17.82
2022-10-29T09:43:12.002Z,17.90
2022-10-29T09:44:11.998Z,17.90
2022-10-29T09:45:11.995Z,17.95
2022-10-29T09:46:11.990Z,17.94
2022-10-29T09:47:11.987Z,18.00
2022-10-29T09:48:11.983Z,18.03
2022-10-29T09:49:11.982Z,18.05
2022-10-29T09:50:11.978Z,18.16
2022-10-29T09:51:11.975Z,18.19
2022-10-29T09:52:11.983Z,18.20
2022-10-29T09:53:11.966Z,18.19
2022-10-29T09:54:11.964Z,18.33
2022-10-29T09:55:11.959Z,18.33
2022-10-29T09:56:11.954Z,18.44
2022-10-29T09:57:11.952Z,18.45
2022-10-29T09:58:11.946Z,18.50
2022-10-29T09:59:11.952Z,18.59
2022-10-29T10:00:11.942Z,18.58
2022-10-29T10:01:11.964Z,18.65
2022-10-29T10:02:11.960Z,18.73
2022-10-29T10:03:12.012Z,18.73
2022-10-29T10:04:11.926Z,18.89
2022-10-29T10:05:11.922Z,18.92
2022-10-29T10:06:11.921Z,18.81
2022-10-29T10:07:11.920Z,18.98
2022-10-29T10:08:11.918Z,18.96
2022-10-29T10:09:11.910Z,18.90
2022-10-29T10:10:11.912Z,18.96
2022-10-29T10:11:11.907Z,19.07
2022-10-29T10:12:11.902Z,18.95
2022-10-29T10:13:16.757Z,18.96
2022-10-29T10:14:11.896Z,18.92
2022-10-29T10:15:11.889Z,18.96
2022-10-29T10:16:11.890Z,18.88
2022-10-29T10:17:11.885Z,18.96
2022-10-29T10:18:11.880Z,18.92
2022-10-29T10:19:11.914Z,18.90
2022-10-29T10:20:11.881Z,19.02
2022-10-29T10:21:11.875Z,18.86
2022-10-29T10:22:13.955Z,18.83
2022-10-29T10:23:11.869Z,18.93
2022-10-29T10:24:11.871Z,18.88
2022-10-29T10:25:11.900Z,19.00
2022-10-29T10:26:11.861Z,18.96
2022-10-29T10:27:11.855Z,18.90
2022-10-29T10:28:11.862Z,18.92
2022-10-29T10:29:11.863Z,19.07
2022-10-29T10:30:11.853Z,19.09
2022-10-29T10:31:11.872Z,19.07
2022-10-29T10:32:11.842Z,19.18
2022-10-29T10:33:11.902Z,19.29
2022-10-29T10:34:11.838Z,19.33
2022-10-29T10:35:11.833Z,19.37
2022-10-29T10:36:11.829Z,19.45
2022-10-29T10:37:11.825Z,19.47
2022-10-29T10:38:11.828Z,19.39
2022-10-29T10:39:11.821Z,19.44
2022-10-29T10:40:11.818Z,19.40
2022-10-29T10:41:11.816Z,19.36
2022-10-29T10:42:11.815Z,19.16
2022-10-29T10:43:11.814Z,19.24
2022-10-29T10:44:11.813Z,19.24
2022-10-29T10:45:11.811Z,19.22
2022-10-29T10:46:11.807Z,19.21
2022-10-29T10:47:11.797Z,19.27
2022-10-29T10:48:11.907Z,19.16
2022-10-29T10:49:11.793Z,19.14
2022-10-29T10:50:11.795Z,19.22
2022-10-29T10:51:11.792Z,19.14
2022-10-29T10:52:11.785Z,19.16
2022-10-29T10:53:11.784Z,19.19
2022-10-29T10:54:11.855Z,19.26
2022-10-29T10:55:11.779Z,19.18
2022-10-29T10:56:11.775Z,19.24
2022-10-29T10:57:11.772Z,19.19
2022-10-29T10:58:11.770Z,19.22
2022-10-29T10:59:11.769Z,19.09
2022-10-29T11:00:11.764Z,19.00
2022-10-29T11:01:11.833Z,18.93
2022-10-29T11:02:11.836Z,18.86
2022-10-29T11:03:11.832Z,18.90
2022-10-29T11:04:11.756Z,18.95
2022-10-29T11:05:11.749Z,18.99
2022-10-29T11:06:11.746Z,19.09
2022-10-29T11:07:11.750Z,18.92
2022-10-29T11:08:11.742Z,19.07
2022-10-29T11:09:11.734Z,18.95
2022-10-29T11:10:11.735Z,18.98
2022-10-29T11:11:11.745Z,18.95
2022-10-29T11:12:11.733Z,19.09
2022-10-29T11:13:11.735Z,19.08
2022-10-29T11:14:11.723Z,19.15
2022-10-29T11:15:11.720Z,19.11
2022-10-29T11:16:11.717Z,19.11
2022-10-29T11:17:11.713Z,19.12
2022-10-29T11:18:11.753Z,19.26
2022-10-29T11:19:11.710Z,19.21
2022-10-29T11:20:11.705Z,19.33
2022-10-29T11:21:11.703Z,19.39
2022-10-29T11:22:11.700Z,19.45
2022-10-29T11:23:11.698Z,19.52
2022-10-29T11:24:11.700Z,19.52
2022-10-29T11:25:11.692Z,19.59
2022-10-29T11:26:11.689Z,19.73
2022-10-29T11:27:11.686Z,19.67
2022-10-29T11:28:11.682Z,19.73
2022-10-29T11:29:11.681Z,19.71
2022-10-29T11:30:11.676Z,19.62
2022-10-29T11:31:11.675Z,19.55
2022-10-29T11:32:11.672Z,19.56
2022-10-29T11:33:11.708Z,19.55
2022-10-29T11:34:11.667Z,19.58
2022-10-29T11:35:11.663Z,19.63
2022-10-29T11:36:11.660Z,19.66
2022-10-29T11:37:11.658Z,19.71
2022-10-29T11:38:11.657Z,19.76
2022-10-29T11:39:11.655Z,19.64
2022-10-29T11:40:11.653Z,19.67
2022-10-29T11:41:11.648Z,19.74
2022-10-29T11:42:11.649Z,19.69
2022-10-29T11:43:11.643Z,19.62
2022-10-29T11:44:11.641Z,19.55
2022-10-29T11:45:11.638Z,19.47
2022-10-29T11:46:11.636Z,19.44
2022-10-29T11:47:11.633Z,19.44
2022-10-29T11:48:11.671Z,19.56
2022-10-29T11:49:11.629Z,19.51
2022-10-29T11:50:11.623Z,19.56
2022-10-29T11:51:11.622Z,19.59
2022-10-29T11:52:11.619Z,19.58
2022-10-29T11:53:11.619Z,19.55
2022-10-29T11:54:11.615Z,19.62
2022-10-29T11:55:11.614Z,19.51
2022-10-29T11:56:11.610Z,19.56
2022-10-29T11:57:11.606Z,19.52
2022-10-29T11:58:11.605Z,19.51
2022-10-29T11:59:11.601Z,19.51
2022-10-29T12:00:11.612Z,19.51
2022-10-29T12:01:11.642Z,19.55
2022-10-29T12:02:11.596Z,19.59
2022-10-29T12:03:11.592Z,19.44
2022-10-29T12:04:11.596Z,19.48
2022-10-29T12:05:11.595Z,19.45
2022-10-29T12:06:11.586Z,19.49
2022-10-29T12:07:11.584Z,19.54
2022-10-29T12:08:11.717Z,19.49
2022-10-29T12:09:11.578Z,19.51
2022-10-29T12:10:11.674Z,19.55
2022-10-29T12:11:11.572Z,19.54
2022-10-29T12:12:11.570Z,19.56
2022-10-29T12:13:11.569Z,19.70
2022-10-29T12:14:11.568Z,19.69
2022-10-29T12:15:11.564Z,19.70
2022-10-29T12:16:11.563Z,19.74
2022-10-29T12:17:11.588Z,19.71
2022-10-29T12:18:11.598Z,19.71
2022-10-29T12:19:11.552Z,19.76
2022-10-29T12:20:11.597Z,19.82
2022-10-29T12:21:11.550Z,19.81
2022-10-29T12:22:11.546Z,19.89
2022-10-29T12:23:14.985Z,19.84
2022-10-29T12:24:11.541Z,19.82
2022-10-29T12:25:11.540Z,19.82
2022-10-29T12:26:11.559Z,19.86
2022-10-29T12:27:11.538Z,19.86
2022-10-29T12:28:11.537Z,19.85
2022-10-29T12:29:11.532Z,19.91
2022-10-29T12:30:11.561Z,19.86
2022-10-29T12:31:11.528Z,19.88
2022-10-29T12:32:11.523Z,19.85
2022-10-29T12:33:11.522Z,19.86
2022-10-29T12:34:11.521Z,19.84
2022-10-29T12:35:11.520Z,19.95
2022-10-29T12:36:11.518Z,20.00
2022-10-29T12:37:11.513Z,20.00
2022-10-29T12:38:11.509Z,20.02
2022-10-29T12:39:11.511Z,19.94
2022-10-29T12:40:11.514Z,19.95
2022-10-29T12:41:11.505Z,19.82
2022-10-29T12:42:11.506Z,19.86
2022-10-29T12:43:11.499Z,19.85
2022-10-29T12:44:11.499Z,19.81
2022-10-29T12:45:11.495Z,19.84
2022-10-29T12:46:20.174Z,19.85
2022-10-29T12:47:11.493Z,19.91
2022-10-29T12:48:11.490Z,19.86
2022-10-29T12:49:11.499Z,19.96
2022-10-29T12:50:11.483Z,19.92
2022-10-29T12:51:11.483Z,19.94
2022-10-29T12:52:11.482Z,19.95
2022-10-29T12:53:11.478Z,20.00
2022-10-29T12:54:11.473Z,20.11
2022-10-29T12:55:11.475Z,20.07
2022-10-29T12:56:11.485Z,20.11
2022-10-29T12:57:11.468Z,20.14
2022-10-29T12:58:11.467Z,20.13
2022-10-29T12:59:11.464Z,20.14
2022-10-29T13:00:11.465Z,20.09
2022-10-29T13:01:11.553Z,20.13
2022-10-29T13:02:12.522Z,20.18
2022-10-29T13:03:11.520Z,20.24
2022-10-29T13:04:11.456Z,20.18
2022-10-29T13:05:11.534Z,20.10
2022-10-29T13:06:11.452Z,20.09
2022-10-29T13:07:11.483Z,20.22